createdAt,value
2018-12-12T00:00:20.193Z,4.00
2018-12-12T00:02:48.457Z,3.90
2018-12-12T00:05:16.843Z,3.90
2018-12-12T00:07:45.177Z,3.90
2018-12-12T00:10:19.590Z,3.80
2018-12-12T00:12:48.973Z,3.80
2018-12-12T00:15:18.521Z,3.80
2018-12-12T00:17:47.443Z,3.80
2018-12-12T00:20:15.742Z,3.70
2018-12-12T00:22:44.002Z,3.70
2018-12-12T00:25:12.275Z,3.70
2018-12-12T00:27:40.676Z,3.70
2018-12-12T00:30:09.060Z,3.70
2018-12-12T00:32:37.496Z,3.60
2018-12-12T00:35:06.059Z,3.60
2018-12-12T00:37:34.296Z,3.60
2018-12-12T00:40:02.684Z,3.60
2018-12-12T00:42:30.935Z,3.60
2018-12-12T00:44:59.207Z,3.60
2018-12-12T00:47:27.492Z,3.50
2018-12-12T00:49:56.382Z,3.50
2018-12-12T00:52:24.703Z,3.50
2018-12-12T00:54:53.128Z,3.50
2018-12-12T00:57:22.997Z,3.50
2018-12-12T00:59:52.528Z,3.40
2018-12-12T01:02:21.004Z,3.40
2018-12-12T01:04:49.418Z,3.40
2018-12-12T01:07:17.800Z,3.30
2018-12-12T01:09:46.063Z,3.30
2018-12-12T01:12:14.646Z,3.30
2018-12-12T01:14:43.085Z,3.30
2018-12-12T01:17:11.514Z,3.30
2018-12-12T01:19:40.113Z,3.20
2018-12-12T01:22:08.789Z,3.20
2018-12-12T01:24:37.158Z,3.20
2018-12-12T01:27:05.650Z,3.20
2018-12-12T01:29:34.080Z,3.20
2018-12-12T01:32:02.838Z,3.20
2018-12-12T01:34:31.225Z,3.20
2018-12-12T01:36:59.935Z,3.20
2018-12-12T01:39:28.231Z,3.20
2018-12-12T01:41:56.914Z,3.20
2018-12-12T01:44:25.335Z,3.20
2018-12-12T01:46:53.672Z,3.20
2018-12-12T01:49:21.999Z,3.20
2018-12-12T01:51:50.506Z,3.20
2018-12-12T01:54:18.808Z,3.20
2018-12-12T01:56:47.084Z,3.20
2018-12-12T01:59:15.466Z,3.20
2018-12-12T02:01:43.724Z,3.20
2018-12-12T02:04:11.998Z,3.20
2018-12-12T02:06:40.274Z,3.20
2018-12-12T02:09:08.567Z,3.20
2018-12-12T02:11:36.852Z,3.20
2018-12-12T02:14:05.527Z,3.20
2018-12-12T02:16:33.798Z,3.20
2018-12-12T02:19:02.364Z,3.20
2018-12-12T02:21:30.657Z,3.20
2018-12-12T02:23:58.961Z,3.20
2018-12-12T02:26:27.219Z,3.20
2018-12-12T02:28:55.523Z,3.20
2018-12-12T02:31:23.893Z,3.20
2018-12-12T02:33:52.130Z,3.20
2018-12-12T02:36:20.436Z,3.20
2018-12-12T02:38:48.712Z,3.20
2018-12-12T02:41:17.036Z,3.20
2018-12-12T02:43:45.398Z,3.20
2018-12-12T02:46:13.612Z,3.20
2018-12-12T02:48:41.909Z,3.20
2018-12-12T02:51:10.155Z,3.20
2018-12-12T02:53:38.419Z,3.20
2018-12-12T02:56:07.242Z,3.20
2018-12-12T02:58:35.531Z,3.20
2018-12-12T03:01:03.835Z,3.20
2018-12-12T03:03:32.115Z,3.20
2018-12-12T03:06:00.421Z,3.20
2018-12-12T03:08:28.692Z,3.20
2018-12-12T03:10:56.970Z,3.20
2018-12-12T03:13:25.303Z,3.20
2018-12-12T03:15:53.580Z,3.20
2018-12-12T03:18:21.872Z,3.20
2018-12-12T03:20:50.154Z,3.20
2018-12-12T03:23:20.924Z,3.10
2018-12-12T03:25:49.264Z,3.10
2018-12-12T03:28:17.542Z,3.20
2018-12-12T03:30:45.931Z,3.20
2018-12-12T03:33:14.309Z,3.20
2018-12-12T03:35:42.576Z,3.20
2018-12-12T03:38:11.889Z,3.20
2018-12-12T03:40:40.544Z,3.20
2018-12-12T03:43:10.179Z,3.20
2018-12-12T03:45:38.450Z,3.20
2018-12-12T03:48:06.749Z,3.20
2018-12-12T03:50:34.991Z,3.20
2018-12-12T03:53:03.233Z,3.20
2018-12-12T03:55:31.557Z,3.10
2018-12-12T03:57:59.898Z,3.10
2018-12-12T04:00:28.177Z,3.10
2018-12-12T04:02:56.417Z,3.10
2018-12-12T04:05:24.702Z,3.10
2018-12-12T04:07:53.007Z,3.10
2018-12-12T04:10:21.319Z,3.10
2018-12-12T04:12:50.722Z,3.10
2018-12-12T04:15:20.077Z,3.10
2018-12-12T04:17:48.442Z,3.10
2018-12-12T04:20:16.719Z,3.10
2018-12-12T04:22:44.980Z,3.10
2018-12-12T04:25:13.398Z,3.10
2018-12-12T04:27:42.815Z,3.10
2018-12-12T04:30:11.137Z,3.10
2018-12-12T04:32:39.465Z,3.10
2018-12-12T04:35:09.401Z,3.10
2018-12-12T04:37:38.857Z,3.10
2018-12-12T04:40:08.332Z,3.10
2018-12-12T04:42:38.202Z,3.10
2018-12-12T04:45:06.750Z,3.00
2018-12-12T04:47:35.019Z,3.00
2018-12-12T04:50:03.439Z,3.00
2018-12-12T04:52:31.706Z,3.00
2018-12-12T04:55:00.619Z,3.00
2018-12-12T04:57:29.880Z,3.00
2018-12-12T04:59:58.271Z,3.00
2018-12-12T05:02:28.149Z,3.00
2018-12-12T05:04:57.114Z,3.00
2018-12-12T05:07:25.500Z,3.00
2018-12-12T05:09:53.844Z,3.00
2018-12-12T05:12:22.116Z,3.00
2018-12-12T05:14:50.358Z,3.00
2018-12-12T05:17:18.739Z,3.00
2018-12-12T05:19:47.001Z,3.00
2018-12-12T05:22:15.279Z,3.00
2018-12-12T05:24:44.463Z,2.90
2018-12-12T05:27:12.959Z,2.90
2018-12-12T05:29:41.236Z,2.90
2018-12-12T05:32:09.531Z,2.90
2018-12-12T05:34:37.810Z,2.90
2018-12-12T05:37:06.108Z,2.90
2018-12-12T05:39:34.416Z,2.90
2018-12-12T05:42:03.011Z,2.90
2018-12-12T05:44:31.323Z,2.90
2018-12-12T05:46:59.572Z,2.90
2018-12-12T05:49:27.862Z,2.90
2018-12-12T05:51:56.135Z,2.90
2018-12-12T05:54:26.586Z,2.90
2018-12-12T05:56:54.866Z,2.90
2018-12-12T05:59:23.122Z,2.90
2018-12-12T06:01:51.374Z,2.90
2018-12-12T06:04:19.695Z,2.90
2018-12-12T06:06:47.972Z,3.00
2018-12-12T06:09:16.247Z,3.00
2018-12-12T06:11:44.536Z,2.90
2018-12-12T06:14:12.807Z,2.90
2018-12-12T06:16:41.081Z,2.90
2018-12-12T06:19:09.435Z,3.00
2018-12-12T06:21:37.893Z,2.90
2018-12-12T06:24:06.175Z,3.00
2018-12-12T06:26:37.483Z,3.00
2018-12-12T06:29:04.911Z,3.00
2018-12-12T06:31:33.230Z,3.00
2018-12-12T06:34:01.523Z,3.00
2018-12-12T06:36:29.820Z,2.90
2018-12-12T06:38:58.105Z,2.90
2018-12-12T06:41:26.445Z,2.90
2018-12-12T06:43:54.746Z,2.90
2018-12-12T06:46:23.051Z,2.90
2018-12-12T06:48:51.462Z,2.90
2018-12-12T06:51:19.818Z,2.90
2018-12-12T06:53:48.196Z,2.90
2018-12-12T06:56:16.522Z,2.90
2018-12-12T06:58:44.833Z,2.90
2018-12-12T07:01:13.130Z,2.90
2018-12-12T07:03:41.482Z,2.90
2018-12-12T07:06:09.788Z,2.90
2018-12-12T07:08:38.052Z,2.90
2018-12-12T07:11:06.321Z,2.90
2018-12-12T07:13:35.827Z,2.90
2018-12-12T07:16:04.422Z,2.90
2018-12-12T07:18:32.776Z,2.90
2018-12-12T07:21:01.099Z,2.90
2018-12-12T07:23:29.423Z,2.90
2018-12-12T07:25:57.702Z,2.90
2018-12-12T07:28:26.035Z,2.90
2018-12-12T07:30:54.335Z,2.90
2018-12-12T07:33:22.681Z,2.90
2018-12-12T07:35:50.940Z,2.90
2018-12-12T07:38:19.232Z,2.90
2018-12-12T07:40:47.566Z,2.90
2018-12-12T07:43:15.870Z,2.90
2018-12-12T07:45:44.139Z,2.90
2018-12-12T07:48:12.439Z,2.90
2018-12-12T07:50:40.767Z,2.90
2018-12-12T07:53:09.020Z,2.90
2018-12-12T07:55:37.416Z,2.90
2018-12-12T07:58:06.687Z,2.90
2018-12-12T08:00:35.032Z,2.90
2018-12-12T08:03:06.293Z,2.90
2018-12-12T08:05:33.721Z,2.90
2018-12-12T08:08:01.961Z,3.00
2018-12-12T08:10:30.221Z,3.00
2018-12-12T08:12:58.607Z,3.00
2018-12-12T08:15:26.883Z,3.00
2018-12-12T08:17:55.177Z,3.00
2018-12-12T08:20:23.453Z,3.00
2018-12-12T08:22:52.104Z,3.00
2018-12-12T08:25:20.655Z,3.10
2018-12-12T08:27:48.958Z,3.10
2018-12-12T08:30:17.298Z,3.10
2018-12-12T08:32:45.580Z,3.10
2018-12-12T08:35:13.998Z,3.20
2018-12-12T08:37:42.341Z,3.20
2018-12-12T08:40:10.711Z,3.20
2018-12-12T08:42:39.011Z,3.30
2018-12-12T08:45:07.360Z,3.30
2018-12-12T08:47:35.772Z,3.30
2018-12-12T08:50:04.630Z,3.40
2018-12-12T08:52:32.938Z,3.40
2018-12-12T08:55:01.570Z,3.50
2018-12-12T08:57:29.959Z,3.50
2018-12-12T08:59:58.320Z,3.50
2018-12-12T09:02:26.625Z,3.60
2018-12-12T09:04:54.896Z,3.60
2018-12-12T09:07:23.200Z,3.70
2018-12-12T09:09:51.488Z,3.70
2018-12-12T09:12:19.895Z,3.70
2018-12-12T09:14:48.192Z,3.70
2018-12-12T09:17:16.451Z,3.70
2018-12-12T09:19:44.733Z,3.70
2018-12-12T09:22:13.038Z,3.80
2018-12-12T09:24:41.316Z,3.80
2018-12-12T09:27:09.584Z,3.80
2018-12-12T09:29:37.902Z,3.90
2018-12-12T09:32:06.209Z,3.90
2018-12-12T09:34:34.491Z,3.90
2018-12-12T09:37:02.739Z,3.90
2018-12-12T09:39:31.016Z,4.00
2018-12-12T09:41:59.300Z,4.00
2018-12-12T09:44:27.710Z,4.00
2018-12-12T09:46:56.026Z,4.00
2018-12-12T09:49:24.355Z,4.00
2018-12-12T09:51:52.736Z,4.10
2018-12-12T09:54:21.069Z,4.10
2018-12-12T09:56:49.378Z,4.10
2018-12-12T09:59:17.696Z,4.10
2018-12-12T10:01:45.995Z,4.10
2018-12-12T10:04:14.312Z,4.10
2018-12-12T10:06:42.588Z,4.10
2018-12-12T10:09:10.893Z,4.10
2018-12-12T10:11:39.155Z,4.20
2018-12-12T10:14:07.462Z,4.20
2018-12-12T10:16:35.950Z,4.30
2018-12-12T10:19:04.412Z,4.30
2018-12-12T10:21:32.761Z,4.30
2018-12-12T10:24:01.047Z,4.40
2018-12-12T10:26:29.326Z,4.40
2018-12-12T10:28:57.979Z,4.50
2018-12-12T10:31:26.527Z,4.50
2018-12-12T10:33:54.791Z,4.60
2018-12-12T10:36:23.069Z,4.60
2018-12-12T10:38:51.383Z,4.70
2018-12-12T10:41:19.728Z,4.80
2018-12-12T10:43:47.987Z,4.90
2018-12-12T10:46:16.284Z,5.00
2018-12-12T10:48:44.569Z,5.00
2018-12-12T10:51:12.962Z,5.00
2018-12-12T10:53:44.318Z,5.10
2018-12-12T10:56:12.609Z,5.20
2018-12-12T10:58:41.032Z,5.20
2018-12-12T11:01:14.811Z,5.30
2018-12-12T11:03:44.339Z,5.30
2018-12-12T11:06:12.965Z,5.40
2018-12-12T11:08:41.236Z,5.50
2018-12-12T11:11:09.555Z,5.60
2018-12-12T11:13:37.881Z,5.80
2018-12-12T11:16:06.240Z,5.80
2018-12-12T11:18:34.668Z,5.90
2018-12-12T11:21:02.947Z,5.90
2018-12-12T11:23:31.230Z,5.90
2018-12-12T11:25:59.513Z,6.00
2018-12-12T11:28:27.854Z,6.00
2018-12-12T11:30:56.164Z,6.00
2018-12-12T11:33:24.486Z,6.00
2018-12-12T11:35:52.763Z,6.00
2018-12-12T11:38:21.076Z,6.00
2018-12-12T11:40:49.370Z,6.00
2018-12-12T11:43:17.823Z,6.00
2018-12-12T11:45:46.133Z,6.00
2018-12-12T11:48:14.432Z,6.00
2018-12-12T11:50:42.853Z,6.10
2018-12-12T11:53:11.155Z,6.10
2018-12-12T11:55:39.485Z,6.10
2018-12-12T11:58:07.826Z,6.00
2018-12-12T12:00:36.263Z,6.00
2018-12-12T12:03:04.643Z,6.10
2018-12-12T12:05:32.902Z,6.00
2018-12-12T12:08:01.169Z,6.00
2018-12-12T12:10:29.467Z,5.90
2018-12-12T12:12:57.830Z,5.90
2018-12-12T12:15:26.047Z,5.90
2018-12-12T12:17:54.399Z,5.90
2018-12-12T12:20:22.734Z,6.00
2018-12-12T12:22:51.030Z,6.00
2018-12-12T12:25:19.411Z,6.00
2018-12-12T12:27:47.787Z,5.90
2018-12-12T12:30:16.111Z,5.90
2018-12-12T12:32:44.362Z,5.80
2018-12-12T12:35:12.680Z,5.80
2018-12-12T12:37:41.004Z,5.80
2018-12-12T12:40:09.348Z,5.90
2018-12-12T12:42:37.615Z,6.00
2018-12-12T12:45:06.531Z,6.00
2018-12-12T12:47:34.806Z,6.00
2018-12-12T12:50:03.215Z,6.00
2018-12-12T12:52:31.509Z,6.10
2018-12-12T12:54:59.792Z,6.20
2018-12-12T12:57:28.051Z,6.20
2018-12-12T12:59:56.430Z,6.20
2018-12-12T13:02:25.996Z,6.30
2018-12-12T13:04:54.325Z,6.40
2018-12-12T13:07:22.587Z,6.50
2018-12-12T13:09:50.899Z,6.90
2018-12-12T13:12:19.243Z,7.10
2018-12-12T13:14:47.775Z,7.10
2018-12-12T13:17:16.112Z,7.00
2018-12-12T13:19:44.409Z,6.80
2018-12-12T13:22:12.931Z,6.70
2018-12-12T13:24:41.227Z,6.50
2018-12-12T13:27:09.540Z,6.20
2018-12-12T13:29:37.803Z,6.10
2018-12-12T13:32:06.114Z,6.00
2018-12-12T13:34:34.378Z,5.80
2018-12-12T13:37:02.752Z,5.70
2018-12-12T13:39:31.077Z,5.70
2018-12-12T13:41:59.315Z,5.60
2018-12-12T13:44:27.613Z,5.60
2018-12-12T13:46:56.415Z,5.50
2018-12-12T13:49:24.695Z,5.40
2018-12-12T13:51:53.036Z,5.30
2018-12-12T13:54:21.363Z,5.30
2018-12-12T13:56:49.663Z,5.30
2018-12-12T13:59:18.092Z,5.20
2018-12-12T14:01:46.483Z,5.20
2018-12-12T14:04:14.890Z,5.10
2018-12-12T14:06:43.251Z,5.10
2018-12-12T14:09:11.832Z,5.10
2018-12-12T14:11:40.426Z,5.00
2018-12-12T14:14:08.728Z,5.00
2018-12-12T14:16:37.574Z,5.00
2018-12-12T14:19:05.807Z,4.90
2018-12-12T14:21:34.419Z,4.90
2018-12-12T14:24:03.069Z,4.90
2018-12-12T14:26:31.351Z,4.80
2018-12-12T14:28:59.643Z,4.80
2018-12-12T14:31:27.959Z,4.80
2018-12-12T14:33:56.397Z,4.80
2018-12-12T14:36:24.818Z,4.80
2018-12-12T14:38:53.168Z,4.80
2018-12-12T14:41:21.448Z,4.90
2018-12-12T14:43:49.786Z,4.90
2018-12-12T14:46:18.147Z,4.90
2018-12-12T14:48:46.442Z,4.90
2018-12-12T14:51:14.716Z,4.90
2018-12-12T14:53:43.014Z,4.90
2018-12-12T14:56:11.291Z,4.90
2018-12-12T14:58:39.714Z,4.80
2018-12-12T15:01:07.974Z,4.80
2018-12-12T15:03:36.610Z,4.70
2018-12-12T15:06:04.887Z,4.60
2018-12-12T15:08:33.172Z,4.60
2018-12-12T15:11:01.410Z,4.50
2018-12-12T15:13:29.674Z,4.50
2018-12-12T15:15:57.989Z,4.40
2018-12-12T15:18:26.285Z,4.30
2018-12-12T15:20:54.872Z,4.30
2018-12-12T15:23:23.822Z,4.30
2018-12-12T15:25:52.123Z,4.30
2018-12-12T15:28:20.453Z,4.20
2018-12-12T15:30:48.708Z,4.20
2018-12-12T15:33:16.983Z,4.20
2018-12-12T15:35:45.256Z,4.10
2018-12-12T15:38:13.593Z,4.10
2018-12-12T15:40:41.975Z,4.00
2018-12-12T15:43:10.258Z,4.00
2018-12-12T15:45:38.608Z,3.90
2018-12-12T15:48:06.952Z,3.90
2018-12-12T15:50:35.270Z,3.80
2018-12-12T15:53:03.528Z,3.80
2018-12-12T15:55:31.835Z,3.80
2018-12-12T15:58:00.188Z,3.70
2018-12-12T16:00:28.888Z,3.70
2018-12-12T16:02:57.431Z,3.60
2018-12-12T16:05:26.664Z,3.60
2018-12-12T16:07:54.954Z,3.60
2018-12-12T16:10:23.395Z,3.50
2018-12-12T16:12:51.841Z,3.50
2018-12-12T16:15:20.162Z,3.50
2018-12-12T16:17:48.518Z,3.50
2018-12-12T16:20:16.941Z,3.40
2018-12-12T16:22:45.787Z,3.40
2018-12-12T16:25:14.104Z,3.30
2018-12-12T16:27:43.625Z,3.30
2018-12-12T16:30:12.104Z,3.20
2018-12-12T16:32:40.621Z,3.20
2018-12-12T16:35:09.079Z,3.10
2018-12-12T16:37:37.386Z,3.10
2018-12-12T16:40:06.436Z,3.10
2018-12-12T16:42:34.715Z,3.00
2018-12-12T16:45:03.556Z,3.00
2018-12-12T16:47:31.812Z,3.00
2018-12-12T16:50:00.737Z,2.90
2018-12-12T16:52:29.247Z,2.90
2018-12-12T16:54:57.530Z,2.90
2018-12-12T16:57:27.900Z,2.90
2018-12-12T16:59:56.210Z,3.00
2018-12-12T17:02:24.723Z,3.00
2018-12-12T17:04:52.975Z,3.00
2018-12-12T17:07:21.410Z,3.00
2018-12-12T17:12:38.736Z,3.10
2018-12-12T17:15:08.264Z,3.10
2018-12-12T17:17:37.353Z,3.10
2018-12-12T17:20:06.380Z,3.10
2018-12-12T17:22:34.907Z,3.10
2018-12-12T17:25:03.426Z,3.10
2018-12-12T17:27:32.158Z,3.10
2018-12-12T17:30:00.495Z,3.10
2018-12-12T17:32:29.162Z,3.20
2018-12-12T17:35:01.925Z,3.20
2018-12-12T17:37:30.195Z,3.20
2018-12-12T17:39:59.229Z,3.20
2018-12-12T17:42:27.639Z,3.20
2018-12-12T17:44:55.897Z,3.20
2018-12-12T17:47:24.306Z,3.10
2018-12-12T17:49:52.824Z,3.10
2018-12-12T17:52:21.431Z,3.00
2018-12-12T17:54:49.732Z,3.00
2018-12-12T17:57:17.972Z,2.90
2018-12-12T17:59:46.396Z,2.80
2018-12-12T18:02:14.998Z,2.70
2018-12-12T18:04:43.461Z,2.70
2018-12-12T18:07:11.767Z,2.60
2018-12-12T18:09:40.122Z,2.60
2018-12-12T18:12:08.506Z,2.50
2018-12-12T18:14:36.804Z,2.40
2018-12-12T18:17:05.272Z,2.40
2018-12-12T18:19:33.597Z,2.40
2018-12-12T18:22:01.963Z,2.30
2018-12-12T18:24:30.410Z,2.30
2018-12-12T18:26:58.924Z,2.30
2018-12-12T18:29:27.339Z,2.30
2018-12-12T18:31:55.593Z,2.30
2018-12-12T18:34:23.983Z,2.30
2018-12-12T18:36:52.449Z,2.40
2018-12-12T18:39:20.881Z,2.40
2018-12-12T18:41:49.408Z,2.50
2018-12-12T18:44:17.702Z,2.60
2018-12-12T18:46:46.132Z,2.60
2018-12-12T18:49:14.527Z,2.70
2018-12-12T18:51:42.807Z,2.70
2018-12-12T18:54:11.208Z,2.80
2018-12-12T18:56:39.757Z,2.80
2018-12-12T18:59:08.064Z,2.80
2018-12-12T19:01:36.404Z,2.80
2018-12-12T19:04:04.860Z,2.80
2018-12-12T19:06:33.328Z,2.90
2018-12-12T19:09:01.596Z,2.90
2018-12-12T19:11:29.934Z,3.00
2018-12-12T19:13:58.376Z,3.00
2018-12-12T19:16:26.905Z,3.00
2018-12-12T19:18:55.227Z,3.00
2018-12-12T19:21:23.585Z,3.10
2018-12-12T19:23:51.911Z,3.10
2018-12-12T19:26:20.186Z,3.10
2018-12-12T19:28:48.442Z,3.10
2018-12-12T19:31:17.571Z,3.10
2018-12-12T19:33:46.005Z,3.10
2018-12-12T19:36:14.847Z,3.10
2018-12-12T19:38:43.414Z,3.10
2018-12-12T19:41:11.929Z,3.00
2018-12-12T19:43:40.961Z,3.00
2018-12-12T19:46:10.155Z,3.00
2018-12-12T19:48:38.505Z,3.00
2018-12-12T19:51:06.769Z,3.00
2018-12-12T19:53:35.453Z,2.90
2018-12-12T19:56:03.787Z,2.90
2018-12-12T19:58:32.266Z,2.90
2018-12-12T20:01:00.683Z,2.90
2018-12-12T20:03:29.134Z,2.90
2018-12-12T20:05:57.423Z,2.90
2018-12-12T20:08:26.089Z,2.90
2018-12-12T20:10:54.479Z,2.90
2018-12-12T20:13:22.795Z,2.90
2018-12-12T20:15:51.259Z,2.90
2018-12-12T20:18:19.651Z,2.90
2018-12-12T20:20:48.033Z,2.90
2018-12-12T20:23:16.399Z,2.90
2018-12-12T20:25:44.772Z,2.90
2018-12-12T20:28:13.125Z,2.90
2018-12-12T20:30:41.556Z,2.90
2018-12-12T20:33:10.390Z,2.90
2018-12-12T20:35:38.877Z,2.90
2018-12-12T20:38:09.660Z,2.90
2018-12-12T20:40:38.152Z,2.90
2018-12-12T20:43:06.542Z,2.90
2018-12-12T20:45:34.963Z,2.90
2018-12-12T20:48:03.295Z,2.90
2018-12-12T20:50:33.906Z,2.90
2018-12-12T20:53:02.219Z,2.90
2018-12-12T20:55:30.564Z,2.90
2018-12-12T20:57:58.907Z,2.90
2018-12-12T21:00:27.299Z,2.90
2018-12-12T21:02:56.254Z,2.90
2018-12-12T21:05:24.666Z,2.90
2018-12-12T21:07:54.524Z,2.90
2018-12-12T21:10:22.815Z,2.90
2018-12-12T21:12:53.229Z,2.90
2018-12-12T21:15:21.645Z,2.90
2018-12-12T21:17:50.139Z,2.90
2018-12-12T21:20:18.477Z,2.90
2018-12-12T21:22:46.763Z,2.90
2018-12-12T21:25:15.060Z,2.90
2018-12-12T21:27:43.389Z,2.90
2018-12-12T21:30:17.066Z,2.90
2018-12-12T21:32:42.004Z,3.00
2018-12-12T21:35:10.312Z,2.90
2018-12-12T21:37:38.608Z,2.90
2018-12-12T21:40:06.950Z,2.90
2018-12-12T21:42:35.255Z,2.80
2018-12-12T21:45:03.774Z,2.80
2018-12-12T21:47:32.167Z,2.80
2018-12-12T21:50:00.732Z,2.70
2018-12-12T21:52:29.683Z,2.70
2018-12-12T21:55:00.268Z,2.70
2018-12-12T21:57:28.671Z,2.70
2018-12-12T21:59:57.046Z,2.60
2018-12-12T22:02:25.523Z,2.60
2018-12-12T22:04:54.105Z,2.60
2018-12-12T22:07:22.526Z,2.60
2018-12-12T22:09:50.955Z,2.60
2018-12-12T22:12:19.430Z,2.60
2018-12-12T22:14:47.747Z,2.60
2018-12-12T22:17:16.237Z,2.60
2018-12-12T22:19:44.711Z,2.60
2018-12-12T22:22:13.278Z,2.60
2018-12-12T22:24:41.664Z,2.60
2018-12-12T22:27:10.062Z,2.60
2018-12-12T22:29:38.436Z,2.60
2018-12-12T22:32:07.300Z,2.60
2018-12-12T22:34:35.885Z,2.60
2018-12-12T22:37:04.366Z,2.60
2018-12-12T22:39:32.876Z,2.60
2018-12-12T22:42:01.449Z,2.60
2018-12-12T22:44:29.908Z,2.60
2018-12-12T22:46:59.499Z,2.60
2018-12-12T22:49:28.104Z,2.50
2018-12-12T22:51:57.034Z,2.50
2018-12-12T22:54:26.426Z,2.50
2018-12-12T22:56:54.870Z,2.50
2018-12-12T22:59:23.366Z,2.50
2018-12-12T23:01:51.768Z,2.50
2018-12-12T23:04:20.225Z,2.50
2018-12-12T23:06:48.709Z,2.50
2018-12-12T23:09:17.149Z,2.50
2018-12-12T23:11:45.565Z,2.50
2018-12-12T23:14:14.067Z,2.50
2018-12-12T23:16:42.386Z,2.50
2018-12-12T23:19:10.877Z,2.50
2018-12-12T23:21:39.192Z,2.40
2018-12-12T23:24:07.546Z,2.40
2018-12-12T23:26:35.788Z,2.30
2018-12-12T23:29:04.326Z,2.30
2018-12-12T23:31:32.687Z,2.20
2018-12-12T23:34:01.134Z,2.20
2018-12-12T23:36:29.535Z,2.10
2018-12-12T23:38:57.949Z,2.10
2018-12-12T23:41:26.335Z,2.10
2018-12-12T23:43:54.675Z,2.10
2018-12-12T23:46:22.967Z,2.10
2018-12-12T23:48:51.276Z,2.10
2018-12-12T23:51:22.542Z,2.00
2018-12-12T23:53:53.905Z,2.00
2018-12-12T23:56:25.221Z,2.00
2018-12-12T23:58:56.519Z,2.00
